CYYZ/YYZ METAR and TAF weather

Enter ICAO airport designator
Station Type Date Time Source
CYYZ METAR 2019/11/22 01:00 UTC NOAA

CYYZ 220100Z 16012G17KT 6SM -SHRA BR OVC015 06/05 A2968 RMK SC8 CVCTV CLD EMBD SLP058


Station Type Date Time Source
CYYZ Decoded METAR 2019/11/22 01:00 UTC NOAA

Toronto Pearson Int'L. Ont., Canada (CYYZ) 43-40N 079-38W 173M
Nov 21, 2019 - 08:00 PM EST / 2019.11.22 0100 UTC
Wind: from the SSE (160 degrees) at 14 MPH (12 KT) gusting to 20 MPH (17 KT):0
Visibility: 6 mile(s):0
Sky conditions: overcast
Weather: light rain showers; mist
Temperature: 42 F (6 C)
Dew Point: 41 F (5 C)
Relative Humidity: 93%
Pressure (altimeter): 29.68 in. Hg (1005 hPa)
ob: CYYZ 220100Z 16012G17KT 6SM -SHRA BR OVC015 06/05 A2968 RMK SC8 CVCTV CLD EMBD SLP058
cycle: 1

Station Type Date Time Source
CYYZ TAF 2019/11/21 22:18 UTC NOAA

TAF
AMD CYYZ 212217Z 2122/2224 16008G18KT P6SM -RA SCT020 OVC040
TEMPO 2122/2123 5SM -RA BR BKN020 OVC040
FM212300 18012KT 5SM -RA BR BKN015 OVC030
TEMPO 2123/2203 6SM -RA BR SCT015 OVC030
FM220300 20012G22KT 4SM -RA -DZ BR SCT006 OVC012
TEMPO 2203/2209 6SM -RA BR
BECMG 2207/2209 27020G30KT
FM220900 27020G30KT P6SM -SHRA BKN020
TEMPO 2209/2211 P6SM NSW BKN025
FM221100 28020G30KT P6SM BKN030
BECMG 2213/2215 30025G35KT
FM221900 30020G30KT P6SM SCT030
BECMG 2219/2221 29012G22KT
BECMG 2222/2224 29010KT
RMK NXT FCST BY 220000Z

Example: see airport list